createdAt,value
2019-06-26T00:01:43.184Z,14.45
2019-06-26T00:04:09.182Z,14.44
2019-06-26T00:06:35.236Z,14.43
2019-06-26T00:09:01.140Z,14.43
2019-06-26T00:11:27.162Z,14.41
2019-06-26T00:13:53.224Z,14.41
2019-06-26T00:16:19.108Z,14.42
2019-06-26T00:18:45.324Z,14.42
2019-06-26T00:21:11.592Z,14.41
2019-06-26T00:23:37.759Z,14.42
2019-06-26T00:26:03.759Z,14.42
2019-06-26T00:28:29.707Z,14.43
2019-06-26T00:30:55.876Z,14.42
2019-06-26T00:33:21.854Z,14.42
2019-06-26T00:35:47.832Z,14.42
2019-06-26T00:38:13.824Z,14.40
2019-06-26T00:40:39.736Z,14.39
2019-06-26T00:43:05.689Z,14.40
2019-06-26T00:45:31.804Z,14.38
2019-06-26T00:47:57.719Z,14.40
2019-06-26T00:50:23.647Z,14.38
2019-06-26T00:52:49.671Z,14.37
2019-06-26T00:55:15.776Z,14.35
2019-06-26T00:57:41.949Z,14.34
2019-06-26T01:00:09.265Z,14.33
2019-06-26T01:02:35.384Z,14.34
2019-06-26T01:05:03.218Z,14.34
2019-06-26T01:07:29.250Z,14.35
2019-06-26T01:09:55.160Z,14.35
2019-06-26T01:12:21.176Z,14.36
2019-06-26T01:14:47.191Z,14.35
2019-06-26T01:17:13.115Z,14.36
2019-06-26T01:19:39.258Z,14.36
2019-06-26T01:22:05.660Z,14.36
2019-06-26T01:24:31.912Z,14.35
2019-06-26T01:26:57.990Z,13.98
2019-06-26T01:29:23.964Z,14.33
2019-06-26T01:31:49.978Z,14.32
2019-06-26T01:34:16.032Z,14.31
2019-06-26T01:36:41.943Z,14.31
2019-06-26T01:39:07.966Z,14.30
2019-06-26T01:41:34.105Z,14.30
2019-06-26T01:44:13.550Z,14.30
2019-06-26T01:46:27.831Z,14.30
2019-06-26T01:48:53.888Z,14.30
2019-06-26T01:51:19.988Z,14.31
2019-06-26T01:53:45.912Z,14.30
2019-06-26T01:56:12.039Z,14.31
2019-06-26T01:58:38.041Z,14.32
2019-06-26T02:01:04.070Z,14.33
2019-06-26T02:03:30.239Z,14.32
2019-06-26T02:05:56.339Z,14.32
2019-06-26T02:08:22.237Z,14.27
2019-06-26T02:10:48.182Z,14.21
2019-06-26T02:13:14.104Z,14.20
2019-06-26T02:15:40.000Z,14.20
2019-06-26T02:18:07.953Z,14.17
2019-06-26T02:20:34.067Z,14.16
2019-06-26T02:23:00.086Z,14.12
2019-06-26T02:25:26.137Z,14.10
2019-06-26T02:27:52.255Z,14.03
2019-06-26T02:30:18.351Z,13.98
2019-06-26T02:32:44.306Z,13.95
2019-06-26T02:35:10.897Z,13.93
2019-06-26T02:37:36.825Z,13.93
2019-06-26T02:40:04.673Z,13.93
2019-06-26T02:42:30.684Z,13.94
2019-06-26T02:44:56.809Z,13.97
2019-06-26T02:47:22.850Z,14.00
2019-06-26T02:49:48.960Z,14.02
2019-06-26T02:52:14.966Z,14.05
2019-06-26T02:54:41.011Z,14.05
2019-06-26T02:57:06.913Z,14.03
2019-06-26T02:59:32.825Z,14.02
2019-06-26T03:01:58.795Z,14.02
2019-06-26T03:04:24.899Z,14.00
2019-06-26T03:06:50.791Z,13.97
2019-06-26T03:09:16.737Z,13.95
2019-06-26T03:11:42.848Z,13.90
2019-06-26T03:14:08.746Z,13.88
2019-06-26T03:16:34.906Z,13.89
2019-06-26T03:19:00.808Z,13.87
2019-06-26T03:21:26.700Z,13.87
2019-06-26T03:23:52.761Z,13.85
2019-06-26T03:26:18.945Z,13.82
2019-06-26T03:28:44.860Z,13.82
2019-06-26T03:31:10.784Z,13.82
2019-06-26T03:33:36.767Z,13.81
2019-06-26T03:36:02.974Z,13.81
2019-06-26T03:38:28.970Z,13.80
2019-06-26T03:40:54.863Z,13.78
2019-06-26T03:43:20.771Z,13.76
2019-06-26T03:45:46.801Z,13.75
2019-06-26T03:48:12.691Z,13.77
2019-06-26T03:50:38.703Z,13.78
2019-06-26T03:53:04.855Z,13.79
2019-06-26T03:55:30.983Z,13.81
2019-06-26T03:57:56.981Z,13.82
2019-06-26T04:00:29.755Z,13.83
2019-06-26T04:02:55.676Z,13.84
2019-06-26T04:05:21.608Z,13.85
2019-06-26T04:07:47.517Z,13.83
2019-06-26T04:10:14.237Z,13.85
2019-06-26T04:12:40.134Z,13.86
2019-06-26T04:15:06.563Z,13.89
2019-06-26T04:17:32.487Z,13.88
2019-06-26T04:19:58.500Z,13.86
2019-06-26T04:22:24.640Z,13.77
2019-06-26T04:24:50.675Z,13.72
2019-06-26T04:27:16.606Z,13.72
2019-06-26T04:29:42.881Z,13.71
2019-06-26T04:32:08.841Z,13.66
2019-06-26T04:34:34.745Z,13.66
2019-06-26T04:37:00.910Z,13.68
2019-06-26T04:39:26.834Z,13.71
2019-06-26T04:41:52.730Z,13.72
2019-06-26T04:44:18.669Z,13.77
2019-06-26T04:46:44.583Z,13.80
2019-06-26T04:49:10.488Z,13.84
2019-06-26T04:51:36.505Z,13.83
2019-06-26T04:54:02.598Z,13.84
2019-06-26T04:56:28.633Z,13.87
2019-06-26T04:58:54.645Z,13.91
2019-06-26T05:01:20.768Z,13.97
2019-06-26T05:03:46.645Z,14.03
2019-06-26T05:06:12.699Z,14.09
2019-06-26T05:08:38.619Z,14.15
2019-06-26T05:11:04.516Z,14.19
2019-06-26T05:13:30.486Z,14.25
2019-06-26T05:15:56.359Z,14.28
2019-06-26T05:18:22.243Z,14.33
2019-06-26T05:20:48.202Z,14.37
2019-06-26T05:23:14.312Z,14.39
2019-06-26T05:25:41.802Z,14.42
2019-06-26T05:28:08.550Z,14.48
2019-06-26T05:30:34.777Z,14.53
2019-06-26T05:33:00.792Z,14.58
2019-06-26T05:35:26.736Z,14.62
2019-06-26T05:37:52.742Z,14.66
2019-06-26T05:40:19.062Z,14.69
2019-06-26T05:42:45.012Z,14.71
2019-06-26T05:45:11.709Z,14.72
2019-06-26T05:47:37.726Z,14.73
2019-06-26T05:50:06.084Z,14.73
2019-06-26T05:52:31.975Z,14.73
2019-06-26T05:54:57.886Z,14.76
2019-06-26T05:57:23.834Z,14.81
2019-06-26T05:59:49.849Z,14.86
2019-06-26T06:02:15.755Z,14.92
2019-06-26T06:04:41.685Z,15.00
2019-06-26T06:07:07.814Z,15.07
2019-06-26T06:09:34.010Z,15.11
2019-06-26T06:11:59.961Z,15.17
2019-06-26T06:14:25.886Z,15.29
2019-06-26T06:16:51.777Z,15.29
2019-06-26T06:19:17.734Z,15.37
2019-06-26T06:21:43.682Z,15.44
2019-06-26T06:24:09.564Z,15.54
2019-06-26T06:26:35.609Z,15.66
2019-06-26T06:29:02.293Z,15.74
2019-06-26T06:31:28.358Z,15.85
2019-06-26T06:33:54.403Z,15.95
2019-06-26T06:36:20.305Z,16.04
2019-06-26T06:38:46.325Z,16.12
2019-06-26T06:41:12.220Z,16.21
2019-06-26T06:43:38.247Z,16.26
2019-06-26T06:46:04.243Z,16.31
2019-06-26T06:48:30.194Z,16.38
2019-06-26T06:50:56.229Z,16.45
2019-06-26T06:53:22.216Z,16.54
2019-06-26T06:55:48.199Z,16.63
2019-06-26T06:58:14.239Z,16.72
2019-06-26T07:00:40.273Z,16.81
2019-06-26T07:03:06.363Z,16.89
2019-06-26T07:05:32.372Z,17.00
2019-06-26T07:07:58.300Z,17.10
2019-06-26T07:10:24.301Z,17.17
2019-06-26T07:12:50.211Z,17.20
2019-06-26T07:15:16.369Z,17.20
2019-06-26T07:17:42.473Z,17.22
2019-06-26T07:20:08.871Z,17.22
2019-06-26T07:22:34.806Z,17.22
2019-06-26T07:25:00.803Z,17.20
2019-06-26T07:27:26.897Z,17.17
2019-06-26T07:29:52.854Z,17.13
2019-06-26T07:32:18.743Z,17.08
2019-06-26T07:34:44.730Z,17.04
2019-06-26T07:37:10.753Z,17.02
2019-06-26T07:39:36.759Z,16.98
2019-06-26T07:42:02.875Z,16.98
2019-06-26T07:44:28.838Z,16.98
2019-06-26T07:46:54.732Z,17.00
2019-06-26T07:49:20.628Z,17.02
2019-06-26T07:51:46.952Z,17.06
2019-06-26T07:54:12.874Z,17.10
2019-06-26T07:56:38.791Z,17.14
2019-06-26T07:59:04.718Z,17.18
2019-06-26T08:01:30.830Z,17.24
2019-06-26T08:03:56.839Z,17.29
2019-06-26T08:06:22.980Z,17.37
2019-06-26T08:08:48.974Z,17.45
2019-06-26T08:11:14.979Z,17.52
2019-06-26T08:13:40.891Z,17.54
2019-06-26T08:16:06.905Z,17.56
2019-06-26T08:18:32.956Z,17.62
2019-06-26T08:21:11.680Z,17.67
2019-06-26T08:23:26.980Z,17.73
2019-06-26T08:25:52.994Z,17.82
2019-06-26T08:28:19.133Z,17.89
2019-06-26T08:30:45.041Z,17.95
2019-06-26T08:33:10.918Z,17.98
2019-06-26T08:35:36.838Z,17.98
2019-06-26T08:38:11.075Z,18.00
2019-06-26T08:40:30.842Z,18.05
2019-06-26T08:42:57.741Z,18.08
2019-06-26T08:45:23.654Z,18.11
2019-06-26T08:47:49.705Z,18.16
2019-06-26T08:50:16.255Z,18.20
2019-06-26T08:52:42.155Z,18.28
2019-06-26T08:55:09.009Z,18.30
2019-06-26T08:57:35.115Z,18.30
2019-06-26T09:00:03.336Z,18.31
2019-06-26T09:02:29.260Z,18.31
2019-06-26T09:04:55.194Z,18.30
2019-06-26T09:07:21.105Z,18.30
2019-06-26T09:09:47.157Z,18.38
2019-06-26T09:12:13.060Z,18.44
2019-06-26T09:14:38.978Z,18.48
2019-06-26T09:17:05.004Z,18.52
2019-06-26T09:19:31.004Z,18.50
2019-06-26T09:21:57.013Z,18.51
2019-06-26T09:24:22.944Z,18.50
2019-06-26T09:26:48.836Z,18.49
2019-06-26T09:29:15.098Z,18.49
2019-06-26T09:31:41.025Z,18.47
2019-06-26T09:34:06.924Z,18.46
2019-06-26T09:36:32.929Z,18.43
2019-06-26T09:38:59.101Z,18.40
2019-06-26T09:41:25.017Z,18.38
2019-06-26T09:43:51.035Z,18.40
2019-06-26T09:46:17.066Z,18.40
2019-06-26T09:48:52.643Z,18.42
2019-06-26T09:51:10.761Z,18.43
2019-06-26T09:53:47.105Z,18.42
2019-06-26T09:56:04.795Z,18.45
2019-06-26T09:58:30.835Z,18.48
2019-06-26T10:00:56.769Z,18.50
2019-06-26T10:03:22.835Z,18.52
2019-06-26T10:05:48.727Z,18.50
2019-06-26T10:08:14.855Z,18.55
2019-06-26T10:10:41.003Z,18.59
2019-06-26T10:13:06.891Z,18.64
2019-06-26T10:15:32.959Z,18.69
2019-06-26T10:17:58.906Z,18.69
2019-06-26T10:20:25.086Z,18.71
2019-06-26T10:22:51.233Z,18.73
2019-06-26T10:25:17.378Z,18.73
2019-06-26T10:27:43.479Z,18.70
2019-06-26T10:30:10.692Z,18.78
2019-06-26T10:32:36.706Z,18.87
2019-06-26T10:35:04.222Z,18.94
2019-06-26T10:37:30.299Z,19.02
2019-06-26T10:39:56.402Z,19.13
2019-06-26T10:42:22.430Z,19.20
2019-06-26T10:44:48.547Z,19.26
2019-06-26T10:47:14.679Z,19.36
2019-06-26T10:49:40.578Z,19.50
2019-06-26T10:52:06.699Z,19.66
2019-06-26T10:54:32.749Z,19.71
2019-06-26T10:56:58.854Z,19.68
2019-06-26T10:59:24.975Z,19.69
2019-06-26T11:01:51.014Z,19.74
2019-06-26T11:04:17.107Z,19.74
2019-06-26T11:06:43.233Z,19.67
2019-06-26T11:09:09.369Z,19.58
2019-06-26T11:11:35.681Z,19.42
2019-06-26T11:14:02.071Z,19.29
2019-06-26T11:16:28.256Z,19.26
2019-06-26T11:18:54.158Z,19.27
2019-06-26T11:21:20.204Z,19.24
2019-06-26T11:23:46.142Z,19.23
2019-06-26T11:26:12.156Z,19.12
2019-06-26T11:28:38.142Z,18.98
2019-06-26T11:31:04.067Z,18.88
2019-06-26T11:33:30.112Z,18.84
2019-06-26T11:35:56.172Z,18.86
2019-06-26T11:38:22.094Z,18.91
2019-06-26T11:40:48.171Z,18.98
2019-06-26T11:43:14.393Z,18.99
2019-06-26T11:45:40.432Z,19.00
2019-06-26T11:48:06.454Z,19.03
2019-06-26T11:50:32.454Z,18.99
2019-06-26T11:52:58.484Z,18.97
2019-06-26T11:55:24.502Z,18.84
2019-06-26T11:57:50.702Z,18.80
2019-06-26T12:00:19.941Z,18.79
2019-06-26T12:02:45.859Z,18.81
2019-06-26T12:05:12.580Z,18.77
2019-06-26T12:07:38.699Z,18.70
2019-06-26T12:10:07.134Z,18.64
2019-06-26T12:12:33.421Z,18.55
2019-06-26T12:14:59.437Z,18.47
2019-06-26T12:17:25.450Z,18.42
2019-06-26T12:19:51.532Z,18.37
2019-06-26T12:22:17.573Z,18.32
2019-06-26T12:24:43.471Z,18.29
2019-06-26T12:27:09.663Z,18.30
2019-06-26T12:29:35.579Z,18.25
2019-06-26T12:32:01.471Z,18.21
2019-06-26T12:34:27.591Z,18.17
2019-06-26T12:36:53.500Z,18.13
2019-06-26T12:39:19.616Z,18.05
2019-06-26T12:41:45.877Z,18.00
2019-06-26T12:44:11.897Z,17.97
2019-06-26T12:46:37.798Z,17.69
2019-06-26T12:49:04.043Z,18.01
2019-06-26T12:51:30.101Z,17.99
2019-06-26T12:53:58.434Z,17.91
2019-06-26T12:56:24.021Z,17.82
2019-06-26T12:58:50.054Z,17.73
2019-06-26T13:01:15.967Z,17.68
2019-06-26T13:03:41.995Z,17.62
2019-06-26T13:06:08.315Z,17.54
2019-06-26T13:08:34.273Z,17.42
2019-06-26T13:11:00.346Z,17.29
2019-06-26T13:13:26.284Z,17.17
2019-06-26T13:15:52.301Z,17.10
2019-06-26T13:18:18.301Z,17.06
2019-06-26T13:20:52.894Z,16.97
2019-06-26T13:23:14.772Z,16.93
2019-06-26T13:25:40.282Z,16.87
2019-06-26T13:28:06.368Z,16.84
2019-06-26T13:30:36.889Z,16.80
2019-06-26T13:33:03.259Z,16.76
2019-06-26T13:35:29.180Z,16.72
2019-06-26T13:37:55.091Z,16.70
2019-06-26T13:40:21.218Z,16.69
2019-06-26T13:42:47.243Z,16.69
2019-06-26T13:45:13.436Z,16.65
2019-06-26T13:47:39.574Z,16.61
2019-06-26T13:50:06.191Z,16.61
2019-06-26T13:52:32.196Z,16.67
2019-06-26T13:54:58.210Z,16.67
2019-06-26T13:57:24.153Z,16.66
2019-06-26T13:59:50.061Z,16.67
2019-06-26T14:02:18.944Z,16.68
2019-06-26T14:04:43.932Z,16.73
2019-06-26T14:07:09.939Z,16.78
2019-06-26T14:09:35.959Z,16.83
2019-06-26T14:12:02.092Z,16.89
2019-06-26T14:14:41.036Z,16.96
2019-06-26T14:16:55.971Z,16.97
2019-06-26T14:19:22.119Z,16.99
2019-06-26T14:21:48.029Z,17.04
2019-06-26T14:24:14.026Z,17.08
2019-06-26T14:26:39.993Z,17.14
2019-06-26T14:29:20.063Z,17.17
2019-06-26T14:31:34.167Z,17.22
2019-06-26T14:34:00.113Z,17.29
2019-06-26T14:36:26.033Z,17.40
2019-06-26T14:38:52.200Z,17.50
2019-06-26T14:41:18.219Z,17.52
2019-06-26T14:43:44.140Z,17.55
2019-06-26T14:46:10.375Z,17.60
2019-06-26T14:48:36.428Z,17.74
2019-06-26T14:51:02.462Z,17.87
2019-06-26T14:53:28.652Z,17.99
2019-06-26T14:55:54.596Z,18.06
2019-06-26T14:58:20.718Z,18.08
2019-06-26T15:00:47.094Z,18.13
2019-06-26T15:03:13.119Z,18.17
2019-06-26T15:05:39.142Z,18.19
2019-06-26T15:08:05.415Z,18.26
2019-06-26T15:10:31.426Z,18.33
2019-06-26T15:12:57.440Z,18.36
2019-06-26T15:15:23.581Z,18.43
2019-06-26T15:17:49.481Z,18.52
2019-06-26T15:20:16.108Z,18.62
2019-06-26T15:22:42.268Z,18.62
2019-06-26T15:25:08.375Z,18.58
2019-06-26T15:27:34.403Z,18.57
2019-06-26T15:30:00.488Z,18.56
2019-06-26T15:32:26.374Z,18.52
2019-06-26T15:34:52.399Z,18.49
2019-06-26T15:37:18.392Z,18.44
2019-06-26T15:39:44.287Z,18.41
2019-06-26T15:42:10.195Z,18.35
2019-06-26T15:44:36.207Z,18.32
2019-06-26T15:47:02.375Z,18.26
2019-06-26T15:49:28.605Z,18.22
2019-06-26T15:51:54.672Z,18.23
2019-06-26T15:54:20.626Z,18.23
2019-06-26T15:56:46.577Z,18.18
2019-06-26T15:59:12.756Z,18.09
2019-06-26T16:01:38.868Z,18.04
2019-06-26T16:04:04.875Z,18.02
2019-06-26T16:06:31.921Z,18.04
2019-06-26T16:08:57.888Z,18.07
2019-06-26T16:11:24.185Z,18.10
2019-06-26T16:13:50.251Z,18.12
2019-06-26T16:16:16.359Z,18.13
2019-06-26T16:18:45.292Z,18.14
2019-06-26T16:21:11.337Z,18.08
2019-06-26T16:23:37.239Z,18.08
2019-06-26T16:26:03.574Z,18.08
2019-06-26T16:28:29.563Z,18.04
2019-06-26T16:30:55.487Z,17.98
2019-06-26T16:33:21.422Z,17.99
2019-06-26T16:35:48.033Z,18.03
2019-06-26T16:38:13.912Z,18.07
2019-06-26T16:40:40.139Z,18.11
2019-06-26T16:43:06.302Z,18.14
2019-06-26T16:45:32.293Z,18.13
2019-06-26T16:47:58.252Z,18.13
2019-06-26T16:50:24.411Z,18.15
2019-06-26T16:52:50.442Z,18.16
2019-06-26T16:55:16.460Z,18.19
2019-06-26T16:57:42.654Z,18.19
2019-06-26T17:00:10.226Z,18.11
2019-06-26T17:02:36.516Z,18.02
2019-06-26T17:05:04.082Z,17.98
2019-06-26T17:07:30.166Z,17.97
2019-06-26T17:09:56.119Z,17.96
2019-06-26T17:12:22.210Z,17.97
2019-06-26T17:14:48.118Z,17.95
2019-06-26T17:17:14.155Z,17.92
2019-06-26T17:19:40.451Z,17.92
2019-06-26T17:22:06.356Z,17.88
2019-06-26T17:24:32.274Z,17.85
2019-06-26T17:26:59.569Z,17.80
2019-06-26T17:29:25.699Z,17.73
2019-06-26T17:31:51.757Z,17.69
2019-06-26T17:34:17.915Z,17.65
2019-06-26T17:36:44.086Z,17.59
2019-06-26T17:39:10.113Z,17.52
2019-06-26T17:41:36.281Z,17.47
2019-06-26T17:44:02.503Z,17.41
2019-06-26T17:46:28.559Z,17.36
2019-06-26T17:48:54.543Z,17.30
2019-06-26T17:51:20.654Z,17.23
2019-06-26T17:53:46.579Z,17.19
2019-06-26T17:56:12.748Z,17.14
2019-06-26T17:58:38.656Z,17.11
2019-06-26T18:01:04.582Z,17.09
2019-06-26T18:03:30.572Z,17.08
2019-06-26T18:05:56.475Z,17.05
2019-06-26T18:08:22.399Z,16.98
2019-06-26T18:10:48.576Z,16.91
2019-06-26T18:13:14.479Z,16.89
2019-06-26T18:15:40.388Z,16.87
2019-06-26T18:18:06.575Z,16.82
2019-06-26T18:20:32.489Z,16.73
2019-06-26T18:23:06.899Z,16.65
2019-06-26T18:25:26.368Z,16.59
2019-06-26T18:27:52.271Z,16.56
2019-06-26T18:30:22.462Z,16.53
2019-06-26T18:32:46.910Z,16.49
2019-06-26T18:35:12.919Z,16.49
2019-06-26T18:37:38.839Z,16.51
2019-06-26T18:40:06.985Z,16.52
2019-06-26T18:42:33.099Z,16.54
2019-06-26T18:44:59.031Z,16.50
2019-06-26T18:47:25.116Z,16.44
2019-06-26T18:49:51.109Z,16.40
2019-06-26T18:52:17.031Z,16.39
2019-06-26T18:54:43.076Z,16.35
2019-06-26T18:57:08.978Z,16.27
2019-06-26T18:59:34.936Z,16.25
2019-06-26T19:02:01.105Z,16.22
2019-06-26T19:04:27.022Z,16.16
2019-06-26T19:06:52.980Z,16.13
2019-06-26T19:09:18.984Z,16.14
2019-06-26T19:11:45.004Z,16.16
2019-06-26T19:14:11.018Z,16.22
2019-06-26T19:16:37.104Z,16.17
2019-06-26T19:19:03.215Z,16.15
2019-06-26T19:21:29.174Z,16.15
2019-06-26T19:24:09.065Z,16.17
2019-06-26T19:26:23.134Z,16.15
2019-06-26T19:28:49.090Z,16.11
2019-06-26T19:31:15.164Z,16.11
2019-06-26T19:33:41.080Z,16.10
2019-06-26T19:36:07.116Z,16.03
2019-06-26T19:38:33.305Z,15.99
2019-06-26T19:40:59.200Z,15.98
2019-06-26T19:43:25.106Z,16.00
2019-06-26T19:45:51.315Z,16.01
2019-06-26T19:48:17.340Z,15.70
2019-06-26T19:50:43.508Z,15.98
2019-06-26T19:53:09.586Z,15.96
2019-06-26T19:55:35.587Z,15.98
2019-06-26T19:58:01.451Z,16.03
2019-06-26T20:00:27.631Z,16.01
2019-06-26T20:02:53.744Z,15.96
2019-06-26T20:05:19.915Z,15.91
2019-06-26T20:07:46.623Z,15.68
2019-06-26T20:10:13.379Z,15.87
2019-06-26T20:12:39.423Z,15.84
2019-06-26T20:15:05.929Z,15.84
2019-06-26T20:17:31.838Z,15.82
2019-06-26T20:19:57.746Z,15.78
2019-06-26T20:22:23.969Z,15.73
2019-06-26T20:24:49.869Z,15.73
2019-06-26T20:27:15.879Z,15.73
2019-06-26T20:29:41.989Z,15.71
2019-06-26T20:32:08.214Z,15.68
2019-06-26T20:34:34.282Z,15.70
2019-06-26T20:37:00.552Z,15.70
2019-06-26T20:39:26.469Z,15.71
2019-06-26T20:41:52.408Z,15.71
2019-06-26T20:44:18.502Z,15.65
2019-06-26T20:46:44.508Z,15.60
2019-06-26T20:49:10.448Z,15.52
2019-06-26T20:51:36.547Z,15.48
2019-06-26T20:54:02.659Z,15.48
2019-06-26T20:56:28.952Z,15.51
2019-06-26T20:58:54.937Z,15.53
2019-06-26T21:01:20.841Z,15.56
2019-06-26T21:03:46.779Z,15.57
2019-06-26T21:06:12.829Z,15.57
2019-06-26T21:08:38.722Z,15.59
2019-06-26T21:11:04.743Z,15.59
2019-06-26T21:13:30.823Z,15.59
2019-06-26T21:15:56.954Z,15.57
2019-06-26T21:18:22.960Z,15.56
2019-06-26T21:20:49.022Z,15.58
2019-06-26T21:23:18.910Z,15.59
2019-06-26T21:25:42.832Z,15.62
2019-06-26T21:28:09.005Z,15.63
2019-06-26T21:30:35.040Z,15.63
2019-06-26T21:33:01.021Z,15.65
2019-06-26T21:35:27.191Z,15.65
2019-06-26T21:37:53.131Z,15.65
2019-06-26T21:40:19.027Z,15.65
2019-06-26T21:42:45.193Z,15.66
2019-06-26T21:45:11.628Z,15.65
2019-06-26T21:47:37.632Z,15.64
2019-06-26T21:50:04.633Z,15.63
2019-06-26T21:52:30.769Z,15.63
2019-06-26T21:54:56.661Z,15.62
2019-06-26T21:57:22.877Z,15.59
2019-06-26T21:59:49.049Z,15.58
2019-06-26T22:02:15.152Z,15.57
2019-06-26T22:04:41.512Z,15.56
2019-06-26T22:07:07.448Z,15.53
2019-06-26T22:09:33.445Z,15.51
2019-06-26T22:12:00.862Z,15.50
2019-06-26T22:14:26.974Z,15.47
2019-06-26T22:16:53.106Z,15.46
2019-06-26T22:19:19.122Z,15.44
2019-06-26T22:21:45.201Z,15.43
2019-06-26T22:24:11.089Z,15.41
2019-06-26T22:26:37.102Z,15.40
2019-06-26T22:29:03.236Z,15.37
2019-06-26T22:31:29.259Z,15.35
2019-06-26T22:33:55.312Z,15.33
2019-06-26T22:36:21.264Z,15.30
2019-06-26T22:38:47.278Z,15.28
2019-06-26T22:41:13.294Z,15.26
2019-06-26T22:43:39.348Z,15.24
2019-06-26T22:46:05.364Z,15.22
2019-06-26T22:48:31.386Z,15.18
2019-06-26T22:50:57.336Z,15.15
2019-06-26T22:53:23.254Z,15.13
2019-06-26T22:55:49.289Z,15.11
2019-06-26T22:58:15.317Z,15.08
2019-06-26T23:00:41.427Z,15.06
2019-06-26T23:03:07.442Z,15.03
2019-06-26T23:05:33.385Z,15.00
2019-06-26T23:07:59.424Z,14.99
2019-06-26T23:10:25.692Z,14.97
2019-06-26T23:12:51.740Z,14.94
2019-06-26T23:15:18.042Z,14.90
2019-06-26T23:17:44.352Z,14.87
2019-06-26T23:20:10.613Z,14.83
2019-06-26T23:22:36.645Z,14.80
2019-06-26T23:25:05.567Z,14.75
2019-06-26T23:27:31.616Z,14.72
2019-06-26T23:29:57.526Z,14.67
2019-06-26T23:32:23.526Z,14.63
2019-06-26T23:34:49.484Z,14.59
2019-06-26T23:37:15.522Z,14.56
2019-06-26T23:39:41.535Z,14.52
2019-06-26T23:42:07.610Z,14.48
2019-06-26T23:44:33.648Z,14.45
2019-06-26T23:46:59.662Z,14.43
2019-06-26T23:49:25.721Z,14.39
2019-06-26T23:51:51.759Z,14.35
2019-06-26T23:54:17.989Z,14.31
2019-06-26T23:56:44.038Z,14.26
2019-06-26T23:59:09.968Z,14.23
